Time;durP1;ratioP1;P1;durP2;ratioP2;P2;SDS_P1;SDS_P2;PMS_P1;PMS_P2;Temp;Humidity;BMP_temperature;BMP_pressure;BME280_temperature;BME280_humidity;BME280_pressure;Samples;Min_cycle;Max_cycle;Signal;HPM_P1;HPM_P2
2021/10/07 00:00:01;;;;;;;25.15;11.52;;;;;;;;;;4993199;28;20426;-45
2021/10/07 00:02:27;;;;;;;24.73;12.50;;;;;;;;;;4993182;28;20035;-46
2021/10/07 00:04:53;;;;;;;21.08;11.10;;;;;;;;;;4993034;28;20486;-46
2021/10/07 00:07:19;;;;;;;32.45;13.32;;;;;;;;;;4993109;28;20034;-46
2021/10/07 00:09:48;;;;;;;27.52;14.35;;;;;;;;;;4993147;28;20029;-45
2021/10/07 00:12:14;;;;;;;26.10;12.07;;;;;;;;;;4996726;28;20494;-50
2021/10/07 00:14:40;;;;;;;20.67;11.48;;;;;;;;;;4996667;28;20061;-45
2021/10/07 00:17:06;;;;;;;26.17;11.68;;;;;;;;;;4996735;28;20026;-47
2021/10/07 00:19:32;;;;;;;19.65;11.27;;;;;;;;;;4979220;28;20037;-46
2021/10/07 00:21:58;;;;;;;17.45;9.85;;;;;;;;;;4996913;28;20054;-46
2021/10/07 00:24:25;;;;;;;21.60;10.10;;;;;;;;;;4996599;28;20097;-49
2021/10/07 00:26:51;;;;;;;24.10;13.43;;;;;;;;;;4996698;28;20031;-46
2021/10/07 00:32:00;;;;;;;22.45;9.57;;;;;;;;;;4996758;28;20042;-46
2021/10/07 00:34:36;;;;;;;22.95;10.45;;;;;;;;;;4996181;28;20410;-46
2021/10/07 00:39:31;;;;;;;19.55;9.80;;;;;;;;;;4996390;28;20026;-47
2021/10/07 00:41:58;;;;;;;18.98;10.88;;;;;;;;;;4996144;28;20026;-50
2021/10/07 00:44:24;;;;;;;24.00;10.43;;;;;;;;;;4996356;28;20018;-46
2021/10/07 00:46:58;;;;;;;24.58;9.38;;;;;;;;;;4996259;28;20050;-50
2021/10/07 00:49:24;;;;;;;18.95;9.27;;;;;;;;;;4996231;28;20030;-47
2021/10/07 00:51:50;;;;;;;19.35;9.00;;;;;;;;;;4996130;28;20113;-46
2021/10/07 00:54:18;;;;;;;19.83;10.30;;;;;;;;;;4996074;28;20386;-48
2021/10/07 00:56:44;;;;;;;18.98;10.43;;;;;;;;;;4995957;28;20022;-46
2021/10/07 00:59:11;;;;;;;14.00;9.20;;;;;;;;;;4996115;28;20019;-45
2021/10/07 01:01:37;;;;;;;15.73;8.75;;;;;;;;;;4995809;28;20548;-45
2021/10/07 01:04:04;;;;;;;16.98;8.38;;;;;;;;;;4995680;28;20471;-46
2021/10/07 01:06:30;;;;;;;26.63;11.10;;;;;;;;;;4995732;28;20041;-46
2021/10/07 01:08:56;;;;;;;15.45;8.55;;;;;;;;;;4995776;28;20046;-45
2021/10/07 01:11:22;;;;;;;20.77;8.88;;;;;;;;;;4995707;28;20065;-45
2021/10/07 01:13:51;;;;;;;21.73;8.65;;;;;;;;;;4995740;28;20026;-46
2021/10/07 01:16:17;;;;;;;20.05;10.45;;;;;;;;;;4995566;28;20522;-45
2021/10/07 01:18:44;;;;;;;17.88;8.05;;;;;;;;;;4995731;28;20019;-47
2021/10/07 01:21:11;;;;;;;18.08;8.70;;;;;;;;;;4995540;28;20213;-46
2021/10/07 01:23:39;;;;;;;19.55;9.35;;;;;;;;;;4995562;28;20513;-45
2021/10/07 01:26:06;;;;;;;17.92;8.73;;;;;;;;;;4995390;28;20084;-45
2021/10/07 01:28:32;;;;;;;20.77;9.30;;;;;;;;;;4995505;28;20030;-45
2021/10/07 01:30:58;;;;;;;17.02;7.70;;;;;;;;;;4995367;28;20030;-45
2021/10/07 01:33:24;;;;;;;19.73;9.23;;;;;;;;;;4995301;28;20026;-46
2021/10/07 01:35:50;;;;;;;16.25;7.70;;;;;;;;;;4977870;28;20503;-46
2021/10/07 01:38:16;;;;;;;22.80;8.38;;;;;;;;;;4995423;28;20471;-46
2021/10/07 01:40:42;;;;;;;17.30;7.50;;;;;;;;;;4995106;28;20046;-46
2021/10/07 01:43:08;;;;;;;21.58;8.32;;;;;;;;;;4995591;28;20431;-45
2021/10/07 01:45:34;;;;;;;21.00;9.45;;;;;;;;;;4995193;28;20023;-45
2021/10/07 01:48:05;;;;;;;19.88;8.73;;;;;;;;;;4995152;28;20019;-46
2021/10/07 01:50:31;;;;;;;18.63;9.07;;;;;;;;;;4995123;28;20026;-45
2021/10/07 01:52:59;;;;;;;19.92;8.73;;;;;;;;;;4977537;28;20483;-45
2021/10/07 01:55:25;;;;;;;15.13;7.85;;;;;;;;;;4994938;28;20037;-46
2021/10/07 01:57:54;;;;;;;21.70;8.25;;;;;;;;;;4994867;28;20049;-47
2021/10/07 02:00:20;;;;;;;16.02;7.20;;;;;;;;;;4994734;28;20030;-46
2021/10/07 02:02:46;;;;;;;16.83;8.77;;;;;;;;;;4995069;28;20026;-47
2021/10/07 02:05:12;;;;;;;19.98;8.90;;;;;;;;;;4994540;28;20422;-46
2021/10/07 02:07:39;;;;;;;20.90;9.75;;;;;;;;;;4994904;28;20033;-46
2021/10/07 02:10:15;;;;;;;22.80;9.13;;;;;;;;;;4994609;28;20026;-47
2021/10/07 02:12:44;;;;;;;24.17;10.02;;;;;;;;;;4994696;28;20535;-46
2021/10/07 02:15:11;;;;;;;17.38;11.27;;;;;;;;;;4994503;28;20098;-46
2021/10/07 02:17:37;;;;;;;21.60;10.95;;;;;;;;;;4994786;28;20026;-46
2021/10/07 02:20:04;;;;;;;28.48;11.70;;;;;;;;;;4994613;28;20062;-46
2021/10/07 02:22:30;;;;;;;23.13;13.07;;;;;;;;;;4994358;28;20030;-46
2021/10/07 02:24:57;;;;;;;22.27;12.50;;;;;;;;;;4994491;28;20098;-47
2021/10/07 02:27:23;;;;;;;20.90;11.80;;;;;;;;;;4994576;28;20399;-48
2021/10/07 02:29:49;;;;;;;17.45;10.07;;;;;;;;;;4994627;28;20054;-49
2021/10/07 02:32:15;;;;;;;22.92;11.82;;;;;;;;;;4994336;28;20032;-48
2021/10/07 02:34:41;;;;;;;22.30;9.60;;;;;;;;;;4993473;28;20443;-46
2021/10/07 02:37:07;;;;;;;21.20;10.95;;;;;;;;;;4994155;28;20079;-45
2021/10/07 02:39:33;;;;;;;19.83;10.27;;;;;;;;;;4994214;28;20149;-45
2021/10/07 02:41:59;;;;;;;18.40;9.43;;;;;;;;;;4994057;28;20490;-45
2021/10/07 02:44:25;;;;;;;16.55;9.32;;;;;;;;;;4994217;28;20022;-45
2021/10/07 02:46:51;;;;;;;18.25;9.10;;;;;;;;;;4993864;28;20060;-45
2021/10/07 02:49:17;;;;;;;18.25;7.80;;;;;;;;;;4994192;28;20021;-45
2021/10/07 02:51:44;;;;;;;14.63;8.13;;;;;;;;;;4994055;28;20033;-45
2021/10/07 02:54:10;;;;;;;17.38;6.90;;;;;;;;;;4994139;28;20509;-46
2021/10/07 02:56:36;;;;;;;8.13;5.75;;;;;;;;;;4993809;28;20382;-45
2021/10/07 02:59:02;;;;;;;14.57;7.53;;;;;;;;;;4994040;28;20033;-44
2021/10/07 03:01:28;;;;;;;12.55;6.30;;;;;;;;;;4993714;28;20042;-45
2021/10/07 03:03:54;;;;;;;13.20;5.75;;;;;;;;;;4993669;28;20109;-46
2021/10/07 03:06:20;;;;;;;11.73;6.72;;;;;;;;;;4993837;28;20158;-45
2021/10/07 03:08:46;;;;;;;14.10;6.43;;;;;;;;;;4993732;28;20069;-46
2021/10/07 03:11:16;;;;;;;8.70;6.60;;;;;;;;;;4993824;28;20026;-46
2021/10/07 03:13:42;;;;;;;11.35;6.28;;;;;;;;;;4993795;28;20057;-45
2021/10/07 03:16:08;;;;;;;11.52;6.60;;;;;;;;;;4993634;28;20022;-47
2021/10/07 03:18:35;;;;;;;17.40;6.95;;;;;;;;;;4993687;28;20074;-47
2021/10/07 03:21:01;;;;;;;14.85;6.60;;;;;;;;;;4993783;28;20475;-50
2021/10/07 03:23:28;;;;;;;11.65;6.68;;;;;;;;;;4993666;28;20109;-52
2021/10/07 03:25:54;;;;;;;15.07;7.88;;;;;;;;;;4993772;28;20031;-47
2021/10/07 03:28:20;;;;;;;13.80;6.60;;;;;;;;;;4993590;28;20078;-46
2021/10/07 03:30:46;;;;;;;17.80;7.10;;;;;;;;;;4993808;28;20483;-45
2021/10/07 03:33:12;;;;;;;16.90;8.68;;;;;;;;;;4993567;28;21019;-46
2021/10/07 03:35:38;;;;;;;19.08;8.13;;;;;;;;;;4993380;28;20085;-46
2021/10/07 03:38:05;;;;;;;15.55;7.55;;;;;;;;;;4993597;28;20022;-46
2021/10/07 03:40:31;;;;;;;15.80;8.05;;;;;;;;;;4993655;28;20117;-45
2021/10/07 03:43:00;;;;;;;12.20;6.93;;;;;;;;;;4993552;28;20027;-46
2021/10/07 03:45:26;;;;;;;13.95;7.55;;;;;;;;;;4977002;28;20030;-46
2021/10/07 03:47:52;;;;;;;11.70;7.28;;;;;;;;;;4997423;28;20395;-46
2021/10/07 03:50:18;;;;;;;17.85;9.60;;;;;;;;;;4997239;28;20036;-46
2021/10/07 03:52:44;;;;;;;14.05;9.18;;;;;;;;;;4997299;28;20038;-46
2021/10/07 03:55:10;;;;;;;21.52;9.77;;;;;;;;;;4997110;28;20489;-46
2021/10/07 03:57:37;;;;;;;17.75;8.60;;;;;;;;;;4997232;28;20023;-46
2021/10/07 04:00:04;;;;;;;17.77;8.43;;;;;;;;;;4996999;28;20030;-46
2021/10/07 04:02:32;;;;;;;15.02;8.10;;;;;;;;;;4997176;28;20394;-46
2021/10/07 04:04:58;;;;;;;13.98;7.70;;;;;;;;;;4996900;28;20026;-47
2021/10/07 04:07:24;;;;;;;14.18;7.80;;;;;;;;;;4997011;28;20030;-45
2021/10/07 04:09:50;;;;;;;10.93;6.93;;;;;;;;;;4996988;28;20045;-45
2021/10/07 04:12:16;;;;;;;17.23;7.65;;;;;;;;;;4996755;28;20026;-45
2021/10/07 04:14:42;;;;;;;16.83;7.50;;;;;;;;;;4997038;28;20052;-45
2021/10/07 04:17:08;;;;;;;9.95;6.13;;;;;;;;;;4996670;28;20029;-45
2021/10/07 04:19:34;;;;;;;9.10;5.50;;;;;;;;;;4996886;28;20037;-45
2021/10/07 04:22:00;;;;;;;12.93;7.22;;;;;;;;;;4996711;28;20355;-46
2021/10/07 04:24:27;;;;;;;13.30;7.78;;;;;;;;;;4996660;28;20026;-46
2021/10/07 04:26:53;;;;;;;13.40;7.07;;;;;;;;;;4996568;28;20085;-45
2021/10/07 04:29:19;;;;;;;10.25;6.00;;;;;;;;;;4996714;28;20022;-45
2021/10/07 04:31:47;;;;;;;15.40;6.25;;;;;;;;;;4996659;28;20390;-45
2021/10/07 04:34:13;;;;;;;8.15;5.95;;;;;;;;;;4996409;28;20127;-45
2021/10/07 04:36:41;;;;;;;11.68;6.05;;;;;;;;;;4996411;28;20490;-45
2021/10/07 04:39:08;;;;;;;12.65;6.25;;;;;;;;;;4996498;28;20037;-46
2021/10/07 04:41:34;;;;;;;12.68;6.18;;;;;;;;;;4996094;28;20100;-45
2021/10/07 04:44:00;;;;;;;12.27;6.60;;;;;;;;;;4996122;28;20065;-45
2021/10/07 04:46:26;;;;;;;17.60;7.95;;;;;;;;;;4996012;28;20061;-45
2021/10/07 04:48:54;;;;;;;10.73;6.70;;;;;;;;;;4996130;28;20022;-46
2021/10/07 04:51:20;;;;;;;12.45;6.78;;;;;;;;;;4996305;28;20126;-45
2021/10/07 04:53:46;;;;;;;10.93;5.65;;;;;;;;;;4996048;28;20022;-45
2021/10/07 04:56:12;;;;;;;12.15;5.82;;;;;;;;;;4978352;28;20030;-45
2021/10/07 04:58:38;;;;;;;11.23;5.25;;;;;;;;;;4992380;28;20050;-48
2021/10/07 05:01:04;;;;;;;8.88;5.13;;;;;;;;;;4967703;28;20411;-47
2021/10/07 05:03:31;;;;;;;9.43;5.25;;;;;;;;;;4984361;28;20045;-48
2021/10/07 05:05:57;;;;;;;16.98;7.15;;;;;;;;;;4976783;28;20037;-53
2021/10/07 05:08:23;;;;;;;10.55;5.53;;;;;;;;;;4976693;28;20419;-49
2021/10/07 05:10:49;;;;;;;11.07;4.65;;;;;;;;;;4976551;28;20033;-50
2021/10/07 05:13:15;;;;;;;13.38;4.85;;;;;;;;;;4976095;28;20023;-50
2021/10/07 05:15:41;;;;;;;9.77;4.85;;;;;;;;;;4976418;28;20037;-51
2021/10/07 05:18:07;;;;;;;13.02;4.43;;;;;;;;;;4958947;28;20126;-50
2021/10/07 05:20:36;;;;;;;10.95;5.68;;;;;;;;;;4976492;28;20065;-50
2021/10/07 05:23:03;;;;;;;6.93;3.83;;;;;;;;;;4976179;28;20030;-50
2021/10/07 05:25:29;;;;;;;9.50;3.42;;;;;;;;;;4959330;28;20030;-51
2021/10/07 05:27:55;;;;;;;8.00;3.92;;;;;;;;;;4976122;28;20031;-50
2021/10/07 05:30:21;;;;;;;10.43;4.35;;;;;;;;;;4976017;28;20379;-49
2021/10/07 05:32:47;;;;;;;13.05;4.63;;;;;;;;;;4958166;28;20035;-48
2021/10/07 05:35:14;;;;;;;10.18;3.75;;;;;;;;;;4975776;28;20409;-48
2021/10/07 05:37:40;;;;;;;8.38;3.70;;;;;;;;;;4975893;28;20027;-48
2021/10/07 05:40:06;;;;;;;14.23;4.88;;;;;;;;;;4975632;28;20054;-48
2021/10/07 05:42:32;;;;;;;13.82;4.18;;;;;;;;;;4975798;28;20027;-48
2021/10/07 05:44:58;;;;;;;8.68;4.00;;;;;;;;;;4975995;28;20023;-49
2021/10/07 05:47:27;;;;;;;12.10;4.65;;;;;;;;;;4975677;28;20027;-49
2021/10/07 05:49:53;;;;;;;8.57;5.22;;;;;;;;;;4975761;28;20044;-55
2021/10/07 05:52:19;;;;;;;13.25;5.40;;;;;;;;;;4975653;28;20053;-50
2021/10/07 05:54:45;;;;;;;9.30;4.53;;;;;;;;;;4975605;28;20077;-48
2021/10/07 05:57:11;;;;;;;11.73;5.22;;;;;;;;;;4975431;28;20023;-55
2021/10/07 05:59:37;;;;;;;9.18;4.00;;;;;;;;;;4975729;28;20034;-51
2021/10/07 06:02:03;;;;;;;9.57;4.93;;;;;;;;;;4975452;28;20043;-49
2021/10/07 06:04:29;;;;;;;13.40;5.38;;;;;;;;;;4975200;28;20023;-49
2021/10/07 06:06:56;;;;;;;11.75;4.90;;;;;;;;;;4975490;28;20048;-50
2021/10/07 06:09:22;;;;;;;9.32;3.78;;;;;;;;;;4974547;28;20023;-49
2021/10/07 06:11:48;;;;;;;12.45;6.03;;;;;;;;;;4975268;28;20027;-51
2021/10/07 06:14:14;;;;;;;24.42;8.85;;;;;;;;;;4974963;28;20098;-50
2021/10/07 06:16:40;;;;;;;9.13;4.55;;;;;;;;;;4975057;28;20391;-49
2021/10/07 06:19:12;;;;;;;13.82;5.43;;;;;;;;;;4975019;28;20023;-49
2021/10/07 06:21:38;;;;;;;11.75;6.22;;;;;;;;;;4975097;28;20177;-53
2021/10/07 06:24:05;;;;;;;15.00;6.78;;;;;;;;;;4975210;28;20029;-49
2021/10/07 06:26:31;;;;;;;13.13;4.70;;;;;;;;;;4975178;28;20065;-49
2021/10/07 06:28:57;;;;;;;6.53;3.95;;;;;;;;;;4957784;28;20373;-49
2021/10/07 06:31:23;;;;;;;10.15;4.40;;;;;;;;;;4975235;28;20034;-49
2021/10/07 06:33:49;;;;;;;8.82;4.85;;;;;;;;;;4975038;28;20033;-49
2021/10/07 06:36:16;;;;;;;10.18;5.18;;;;;;;;;;4975239;28;20487;-49
2021/10/07 06:38:43;;;;;;;7.93;4.97;;;;;;;;;;4975034;28;20375;-49
2021/10/07 06:41:09;;;;;;;9.30;4.90;;;;;;;;;;4974997;28;20442;-50
2021/10/07 06:43:35;;;;;;;11.40;4.97;;;;;;;;;;4957622;28;20443;-49
2021/10/07 06:46:01;;;;;;;9.18;4.90;;;;;;;;;;4974934;28;20476;-49
2021/10/07 06:48:27;;;;;;;9.73;4.50;;;;;;;;;;4975502;28;20058;-49
2021/10/07 06:50:53;;;;;;;9.73;5.25;;;;;;;;;;4974948;28;20549;-49
2021/10/07 06:53:19;;;;;;;13.55;5.18;;;;;;;;;;4974871;28;20395;-49
2021/10/07 06:55:46;;;;;;;8.43;4.15;;;;;;;;;;4974903;28;20475;-49
2021/10/07 06:58:16;;;;;;;8.50;4.50;;;;;;;;;;4974891;28;20416;-51
2021/10/07 07:00:47;;;;;;;12.35;5.45;;;;;;;;;;4974585;28;20034;-49
2021/10/07 07:03:13;;;;;;;10.57;5.80;;;;;;;;;;4974689;28;20026;-49
2021/10/07 07:05:39;;;;;;;13.52;5.78;;;;;;;;;;4974521;28;20497;-49
2021/10/07 07:08:05;;;;;;;9.18;4.88;;;;;;;;;;4974866;28;20058;-49
2021/10/07 07:10:32;;;;;;;10.95;4.60;;;;;;;;;;4974719;28;20031;-48
2021/10/07 07:12:58;;;;;;;11.77;4.93;;;;;;;;;;4974393;28;20027;-48
2021/10/07 07:15:24;;;;;;;8.52;5.22;;;;;;;;;;4974734;28;20026;-48
2021/10/07 07:17:50;;;;;;;12.90;5.68;;;;;;;;;;4974623;28;20490;-49
2021/10/07 07:20:16;;;;;;;10.50;5.10;;;;;;;;;;4974524;28;20031;-49
2021/10/07 07:22:42;;;;;;;8.38;4.80;;;;;;;;;;4974518;28;20027;-49
2021/10/07 07:25:09;;;;;;;10.27;3.78;;;;;;;;;;4974691;28;20027;-49
2021/10/07 07:27:35;;;;;;;6.22;4.25;;;;;;;;;;4974296;28;20038;-49
2021/10/07 07:30:03;;;;;;;10.10;4.40;;;;;;;;;;4974322;28;20019;-49
2021/10/07 07:32:29;;;;;;;11.15;5.28;;;;;;;;;;4974336;28;20085;-49
2021/10/07 07:34:55;;;;;;;8.48;5.38;;;;;;;;;;4974047;28;20551;-49
2021/10/07 07:37:21;;;;;;;12.15;5.75;;;;;;;;;;4974577;28;20031;-50
2021/10/07 07:39:47;;;;;;;11.23;5.22;;;;;;;;;;4974425;28;20031;-49
2021/10/07 07:42:13;;;;;;;9.40;5.25;;;;;;;;;;4974363;28;20074;-49
2021/10/07 07:44:41;;;;;;;12.93;4.22;;;;;;;;;;4974320;28;20029;-50
2021/10/07 07:47:07;;;;;;;21.77;10.25;;;;;;;;;;4974375;28;20039;-51
2021/10/07 07:49:33;;;;;;;12.25;5.82;;;;;;;;;;4974360;28;20490;-48
2021/10/07 07:52:00;;;;;;;15.68;9.20;;;;;;;;;;4974260;28;20023;-49
2021/10/07 07:54:28;;;;;;;10.80;6.72;;;;;;;;;;4974255;28;20022;-55
2021/10/07 07:56:54;;;;;;;9.57;6.10;;;;;;;;;;4956667;28;20062;-50
2021/10/07 07:59:20;;;;;;;9.10;5.40;;;;;;;;;;4974288;28;20102;-55
2021/10/07 08:01:49;;;;;;;9.48;5.95;;;;;;;;;;4956896;28;20041;-49
2021/10/07 08:04:15;;;;;;;18.38;5.65;;;;;;;;;;4973911;28;20034;-50
2021/10/07 08:06:41;;;;;;;9.55;6.10;;;;;;;;;;4974080;28;20115;-50
2021/10/07 08:09:08;;;;;;;13.82;6.20;;;;;;;;;;4974209;28;20019;-49
2021/10/07 08:11:39;;;;;;;10.25;5.85;;;;;;;;;;4973899;28;20035;-51
2021/10/07 08:14:06;;;;;;;18.02;5.32;;;;;;;;;;4974196;28;20034;-49
2021/10/07 08:16:32;;;;;;;13.65;5.40;;;;;;;;;;4973946;28;20037;-50
2021/10/07 08:18:58;;;;;;;13.00;5.75;;;;;;;;;;4974072;28;20027;-51
2021/10/07 08:21:24;;;;;;;7.40;5.40;;;;;;;;;;4973942;28;20445;-50
2021/10/07 08:23:53;;;;;;;10.50;5.30;;;;;;;;;;4973948;28;20383;-50
2021/10/07 08:26:19;;;;;;;6.93;4.90;;;;;;;;;;4973822;28;20061;-56
2021/10/07 08:28:45;;;;;;;12.75;4.53;;;;;;;;;;4973845;28;20033;-51
2021/10/07 08:31:12;;;;;;;9.27;5.15;;;;;;;;;;4974156;28;20027;-50
2021/10/07 08:33:39;;;;;;;8.50;4.90;;;;;;;;;;4977129;28;20027;-50
2021/10/07 08:36:05;;;;;;;13.55;5.20;;;;;;;;;;4977024;28;20047;-52
2021/10/07 08:38:32;;;;;;;8.23;4.78;;;;;;;;;;4977159;28;20034;-52
2021/10/07 08:40:58;;;;;;;8.93;4.40;;;;;;;;;;4976980;28;20042;-53
2021/10/07 08:43:25;;;;;;;9.55;4.93;;;;;;;;;;4977129;28;20037;-52
2021/10/07 08:45:52;;;;;;;10.98;4.82;;;;;;;;;;4976944;28;20109;-51
2021/10/07 08:48:18;;;;;;;9.98;4.60;;;;;;;;;;4976896;28;20027;-52
2021/10/07 08:50:44;;;;;;;9.82;4.68;;;;;;;;;;4976947;28;20495;-51
2021/10/07 08:53:13;;;;;;;8.10;5.20;;;;;;;;;;4976814;28;20098;-51
2021/10/07 08:55:39;;;;;;;12.35;5.18;;;;;;;;;;4976951;28;20019;-52
2021/10/07 08:58:05;;;;;;;9.00;4.40;;;;;;;;;;4976753;28;20030;-52
2021/10/07 09:00:31;;;;;;;13.68;5.45;;;;;;;;;;4976627;28;20443;-51
2021/10/07 09:03:15;;;;;;;19.65;6.90;;;;;;;;;;4976522;28;20031;-52
2021/10/07 09:05:41;;;;;;;13.80;5.85;;;;;;;;;;4976637;28;20097;-51
2021/10/07 09:08:09;;;;;;;14.77;5.20;;;;;;;;;;4976784;28;20031;-52
2021/10/07 09:10:44;;;;;;;8.60;4.43;;;;;;;;;;4976398;28;20042;-52
2021/10/07 09:13:21;;;;;;;13.88;6.30;;;;;;;;;;4976854;28;20022;-51
2021/10/07 09:15:50;;;;;;;15.35;6.38;;;;;;;;;;4976471;28;20030;-52
2021/10/07 09:18:17;;;;;;;10.07;4.53;;;;;;;;;;4976438;28;20051;-52
2021/10/07 09:20:44;;;;;;;15.30;5.07;;;;;;;;;;4976292;28;20046;-52
2021/10/07 09:23:16;;;;;;;12.52;5.07;;;;;;;;;;4976360;28;20106;-52
2021/10/07 09:26:04;;;;;;;8.65;4.50;;;;;;;;;;4976520;28;20026;-53
2021/10/07 09:28:48;;;;;;;14.60;4.90;;;;;;;;;;4976593;28;20499;-54
2021/10/07 09:31:14;;;;;;;14.57;8.10;;;;;;;;;;4976369;28;20379;-56
2021/10/07 09:33:43;;;;;;;11.18;5.45;;;;;;;;;;4976042;28;20022;-53
2021/10/07 09:36:17;;;;;;;10.80;4.90;;;;;;;;;;4976201;28;20490;-53
2021/10/07 09:38:44;;;;;;;9.57;4.80;;;;;;;;;;4974834;28;20399;-51
2021/10/07 09:41:15;;;;;;;15.65;4.78;;;;;;;;;;4976084;28;20109;-54
2021/10/07 09:43:45;;;;;;;14.43;5.88;;;;;;;;;;4974903;28;20026;-52
2021/10/07 09:46:11;;;;;;;15.70;5.57;;;;;;;;;;4975992;28;20055;-52
2021/10/07 09:48:41;;;;;;;10.52;5.40;;;;;;;;;;4976165;28;20356;-52
2021/10/07 09:51:17;;;;;;;11.48;5.38;;;;;;;;;;4975931;28;20029;-52
2021/10/07 09:53:46;;;;;;;14.68;5.57;;;;;;;;;;4975753;28;20022;-52
2021/10/07 09:56:26;;;;;;;15.07;5.10;;;;;;;;;;4975792;28;20041;-52
2021/10/07 09:58:54;;;;;;;12.43;6.15;;;;;;;;;;4975713;28;20035;-52
2021/10/07 10:01:20;;;;;;;19.80;5.65;;;;;;;;;;4975777;28;20442;-51
2021/10/07 10:03:47;;;;;;;12.57;5.82;;;;;;;;;;4975565;28;20015;-52
2021/10/07 10:06:13;;;;;;;15.98;5.57;;;;;;;;;;4975614;28;20089;-52
2021/10/07 10:08:40;;;;;;;14.55;4.82;;;;;;;;;;4975378;28;20050;-51
2021/10/07 10:11:06;;;;;;;11.55;5.63;;;;;;;;;;4974286;28;20074;-52
2021/10/07 10:13:33;;;;;;;18.67;6.32;;;;;;;;;;4975311;28;20023;-51
2021/10/07 10:15:59;;;;;;;20.27;5.53;;;;;;;;;;4975406;28;20094;-51
2021/10/07 10:18:26;;;;;;;21.60;6.13;;;;;;;;;;4975192;28;20058;-52
2021/10/07 10:20:53;;;;;;;14.18;5.40;;;;;;;;;;4975108;28;20035;-52
2021/10/07 10:23:21;;;;;;;12.23;5.05;;;;;;;;;;4975339;28;20440;-52
2021/10/07 10:25:59;;;;;;;17.10;5.90;;;;;;;;;;4975284;28;20167;-52
2021/10/07 10:28:51;;;;;;;16.08;5.85;;;;;;;;;;4975334;28;20026;-52
2021/10/07 10:31:31;;;;;;;18.90;5.70;;;;;;;;;;4915772;29;20131;-51
2021/10/07 10:34:03;;;;;;;13.85;5.72;;;;;;;;;;4915397;29;20036;-52
2021/10/07 10:36:32;;;;;;;21.95;6.82;;;;;;;;;;4915650;29;20055;-50
2021/10/07 10:39:10;;;;;;;19.25;6.10;;;;;;;;;;4915553;29;20052;-51
2021/10/07 10:41:46;;;;;;;15.95;4.95;;;;;;;;;;4915392;29;20123;-52
2021/10/07 10:44:30;;;;;;;18.08;5.85;;;;;;;;;;4915422;29;20043;-51
2021/10/07 10:47:02;;;;;;;22.00;6.38;;;;;;;;;;4915397;29;20129;-52
2021/10/07 10:49:51;;;;;;;19.63;5.97;;;;;;;;;;4915351;29;20131;-52
2021/10/07 10:52:23;;;;;;;21.33;7.45;;;;;;;;;;4915367;29;20080;-53
2021/10/07 10:54:49;;;;;;;;;;;;;;;;;;4915438;29;20044;-52
2021/10/07 10:57:33;;;;;;;19.02;5.70;;;;;;;;;;4915468;29;19914;-55
2021/10/07 11:00:05;;;;;;;21.63;6.35;;;;;;;;;;4915329;29;20032;-51
2021/10/07 11:02:32;;;;;;;18.08;6.13;;;;;;;;;;4915236;29;20103;-51
2021/10/07 11:05:00;;;;;;;18.83;6.00;;;;;;;;;;4915203;29;20032;-54
2021/10/07 11:07:35;;;;;;;33.53;11.30;;;;;;;;;;4923343;28;20099;-53
2021/10/07 11:10:04;;;;;;;25.75;10.95;;;;;;;;;;4973953;28;20061;-54
2021/10/07 11:12:47;;;;;;;26.17;10.52;;;;;;;;;;4971435;28;20101;-55
2021/10/07 11:15:14;;;;;;;32.10;11.15;;;;;;;;;;4971889;28;20026;-52
2021/10/07 11:17:41;;;;;;;29.98;10.73;;;;;;;;;;4973098;28;20051;-53
2021/10/07 11:20:08;;;;;;;29.05;7.18;;;;;;;;;;4973219;28;20110;-58
2021/10/07 11:22:34;;;;;;;23.35;6.45;;;;;;;;;;4972914;28;20062;-54
2021/10/07 11:25:01;;;;;;;13.27;4.90;;;;;;;;;;4972923;28;20034;-52
2021/10/07 11:27:46;;;;;;;17.90;4.85;;;;;;;;;;4973162;28;20073;-51
2021/10/07 11:30:14;;;;;;;18.73;4.53;;;;;;;;;;4974067;28;20077;-51
2021/10/07 11:32:41;;;;;;;19.13;5.20;;;;;;;;;;4974502;28;20031;-53
2021/10/07 11:35:11;;;;;;;24.33;6.15;;;;;;;;;;4984103;28;20109;-51
2021/10/07 11:37:44;;;;;;;18.17;5.80;;;;;;;;;;4985913;28;20085;-52
2021/10/07 11:40:21;;;;;;;19.33;4.80;;;;;;;;;;4975896;28;20332;-51
2021/10/07 11:42:47;;;;;;;20.50;4.30;;;;;;;;;;4974479;28;20058;-52
2021/10/07 11:45:19;;;;;;;20.98;4.95;;;;;;;;;;4963848;28;20031;-51
2021/10/07 11:47:45;;;;;;;32.53;4.60;;;;;;;;;;4977176;28;20034;-51
2021/10/07 11:50:12;;;;;;;15.68;4.25;;;;;;;;;;4975519;28;20387;-51
2021/10/07 11:52:40;;;;;;;26.98;4.40;;;;;;;;;;4975715;28;20023;-51
2021/10/07 11:55:07;;;;;;;20.92;4.07;;;;;;;;;;4975854;28;20023;-51
2021/10/07 11:57:35;;;;;;;22.15;4.93;;;;;;;;;;4978218;28;20487;-51
2021/10/07 12:00:01;;;;;;;17.13;3.92;;;;;;;;;;4980809;28;20039;-51
2021/10/07 12:02:30;;;;;;;19.67;4.63;;;;;;;;;;4975766;28;20030;-51
2021/10/07 12:05:14;;;;;;;20.48;5.15;;;;;;;;;;4975701;28;20030;-54
2021/10/07 12:07:41;;;;;;;16.02;4.07;;;;;;;;;;4981005;28;20451;-51
2021/10/07 12:10:07;;;;;;;19.77;5.20;;;;;;;;;;4979607;28;20019;-51
2021/10/07 12:12:33;;;;;;;18.80;5.15;;;;;;;;;;4981781;28;20080;-50
2021/10/07 12:14:59;;;;;;;16.58;4.88;;;;;;;;;;4983489;28;20102;-58
2021/10/07 12:17:25;;;;;;;15.75;4.72;;;;;;;;;;4984619;28;20019;-54
2021/10/07 12:19:52;;;;;;;19.80;5.95;;;;;;;;;;4980990;28;20027;-53
2021/10/07 12:22:29;;;;;;;14.40;4.20;;;;;;;;;;4981428;28;20126;-52
2021/10/07 12:25:00;;;;;;;19.70;4.78;;;;;;;;;;4982905;28;20450;-54
2021/10/07 12:27:33;;;;;;;22.45;5.20;;;;;;;;;;4981589;28;20042;-52
2021/10/07 12:30:06;;;;;;;25.70;4.90;;;;;;;;;;4981788;28;20057;-51
2021/10/07 12:32:32;;;;;;;18.77;5.45;;;;;;;;;;4980995;28;20033;-51
2021/10/07 12:35:01;;;;;;;23.35;5.53;;;;;;;;;;4984942;28;20050;-62
2021/10/07 12:37:30;;;;;;;25.13;5.25;;;;;;;;;;4984616;28;20043;-57
2021/10/07 12:39:57;;;;;;;20.05;5.53;;;;;;;;;;4989458;28;20450;-54
2021/10/07 12:42:27;;;;;;;19.52;5.72;;;;;;;;;;4980729;28;20082;-59
2021/10/07 12:44:55;;;;;;;24.95;7.35;;;;;;;;;;4964828;28;20102;-58
2021/10/07 12:47:27;;;;;;;20.75;5.60;;;;;;;;;;4996641;28;20030;-54
2021/10/07 12:49:54;;;;;;;21.77;7.55;;;;;;;;;;4996474;28;20058;-54
2021/10/07 12:52:28;;;;;;;20.83;5.20;;;;;;;;;;4996334;28;20098;-52
2021/10/07 12:54:58;;;;;;;30.88;8.40;;;;;;;;;;4995989;28;20053;-54
2021/10/07 12:57:36;;;;;;;27.00;6.13;;;;;;;;;;4996294;28;20081;-56
2021/10/07 13:00:03;;;;;;;24.45;5.68;;;;;;;;;;4995966;28;20025;-58
2021/10/07 13:02:30;;;;;;;22.63;4.88;;;;;;;;;;4996256;28;20046;-53
2021/10/07 13:04:57;;;;;;;18.75;4.50;;;;;;;;;;4986341;28;20077;-52
2021/10/07 13:07:26;;;;;;;20.92;4.80;;;;;;;;;;4984793;28;20034;-57
2021/10/07 13:09:52;;;;;;;24.77;8.48;;;;;;;;;;4985911;28;20022;-55
2021/10/07 13:12:19;;;;;;;28.90;7.22;;;;;;;;;;4984092;28;20042;-53
2021/10/07 13:14:56;;;;;;;19.75;7.75;;;;;;;;;;4993320;28;20100;-59
2021/10/07 13:17:22;;;;;;;27.77;9.77;;;;;;;;;;4995666;28;20030;-50
2021/10/07 13:19:48;;;;;;;23.90;8.02;;;;;;;;;;4995907;28;20034;-53
2021/10/07 13:22:14;;;;;;;32.63;13.55;;;;;;;;;;4995975;28;20122;-50
2021/10/07 13:24:41;;;;;;;20.83;8.02;;;;;;;;;;4995815;28;20022;-51
2021/10/07 13:27:11;;;;;;;25.65;6.90;;;;;;;;;;4986684;28;20109;-57
2021/10/07 13:29:37;;;;;;;21.50;6.30;;;;;;;;;;4987896;28;20029;-50
2021/10/07 13:32:04;;;;;;;23.60;7.55;;;;;;;;;;4988063;28;20022;-57
2021/10/07 13:34:30;;;;;;;21.60;6.47;;;;;;;;;;4984715;28;20411;-51
2021/10/07 13:36:56;;;;;;;41.42;14.85;;;;;;;;;;4983403;28;20022;-52
2021/10/07 13:39:22;;;;;;;47.78;19.95;;;;;;;;;;4981960;28;20474;-52
2021/10/07 13:41:48;;;;;;;48.58;18.95;;;;;;;;;;4984812;28;20032;-50
2021/10/07 13:44:18;;;;;;;32.42;11.43;;;;;;;;;;4984381;28;20030;-51
2021/10/07 13:46:44;;;;;;;36.90;11.48;;;;;;;;;;4983244;28;20030;-51
2021/10/07 13:49:10;;;;;;;19.23;6.45;;;;;;;;;;4983659;28;20181;-52
2021/10/07 13:51:36;;;;;;;36.65;13.18;;;;;;;;;;4984733;28;20031;-52
2021/10/07 13:54:05;;;;;;;19.10;7.60;;;;;;;;;;4983451;28;20426;-51
2021/10/07 13:56:31;;;;;;;18.27;6.03;;;;;;;;;;4983738;28;20019;-53
2021/10/07 13:58:57;;;;;;;13.93;5.95;;;;;;;;;;4983380;28;20022;-51
2021/10/07 14:01:25;;;;;;;23.75;7.43;;;;;;;;;;4977725;28;20041;-51
2021/10/07 14:03:51;;;;;;;30.52;8.75;;;;;;;;;;4977485;28;20074;-51
2021/10/07 14:06:21;;;;;;;23.02;5.22;;;;;;;;;;4976647;28;20108;-51
2021/10/07 14:08:47;;;;;;;21.45;4.82;;;;;;;;;;4957801;28;20073;-51
2021/10/07 14:11:15;;;;;;;24.23;7.07;;;;;;;;;;4973835;28;20113;-52
2021/10/07 14:13:42;;;;;;;16.92;5.00;;;;;;;;;;4974932;28;20022;-51
2021/10/07 14:16:08;;;;;;;19.10;4.60;;;;;;;;;;4974690;28;20057;-52
2021/10/07 14:18:34;;;;;;;14.38;4.15;;;;;;;;;;4974875;28;20076;-52
2021/10/07 14:21:01;;;;;;;15.90;4.10;;;;;;;;;;4974784;28;20030;-52
2021/10/07 14:23:27;;;;;;;12.77;4.03;;;;;;;;;;4975500;28;20043;-52
2021/10/07 14:25:54;;;;;;;15.73;5.82;;;;;;;;;;4975729;28;20475;-52
2021/10/07 14:28:20;;;;;;;12.45;4.13;;;;;;;;;;4975660;28;20022;-52
2021/10/07 14:30:47;;;;;;;17.85;4.72;;;;;;;;;;4974927;28;20030;-51
2021/10/07 14:33:13;;;;;;;13.48;4.75;;;;;;;;;;4975501;28;20030;-52
2021/10/07 14:35:39;;;;;;;13.07;4.28;;;;;;;;;;4975318;28;20066;-52
2021/10/07 14:38:05;;;;;;;15.63;4.50;;;;;;;;;;4975451;28;20022;-52